Time;durP1;ratioP1;P1;durP2;ratioP2;P2;SDS_P1;SDS_P2;PMS_P1;PMS_P2;Temp;Humidity;BMP_temperature;BMP_pressure;BME280_temperature;BME280_humidity;BME280_pressure;Samples;Min_cycle;Max_cycle;Signal;HPM_P1;HPM_P2
2022/12/29 00:01:30;;;;;;;16.03;2.90;;;;;;;;;;5131087;28;20279;-76
2022/12/29 00:03:57;;;;;;;22.37;3.10;;;;;;;;;;5132081;28;20284;-77
2022/12/29 00:06:26;;;;;;;18.13;2.97;;;;;;;;;;5131479;28;20242;-77
2022/12/29 00:08:53;;;;;;;16.33;2.73;;;;;;;;;;5132244;27;20280;-77
2022/12/29 00:11:21;;;;;;;21.20;3.53;;;;;;;;;;5135460;27;20236;-77
2022/12/29 00:16:34;;;;;;;15.03;2.70;;;;;;;;;;5135243;27;20258;-76
2022/12/29 00:19:01;;;;;;;19.87;2.80;;;;;;;;;;5135422;27;20213;-76
2022/12/29 00:35:27;;;;;;;14.73;2.30;;;;;;;;;;5114721;28;20703;-76
2022/12/29 00:46:11;;;;;;;15.63;2.97;;;;;;;;;;5114223;28;20240;-76
2022/12/29 00:51:23;;;;;;;12.53;2.17;;;;;;;;;;5114083;28;20204;-76
2022/12/29 00:53:52;;;;;;;13.67;2.57;;;;;;;;;;5114141;28;20222;-76
2022/12/29 00:56:19;;;;;;;18.90;2.47;;;;;;;;;;5113932;28;20229;-77
2022/12/29 00:58:46;;;;;;;20.67;2.93;;;;;;;;;;5113843;28;20230;-76
2022/12/29 01:01:13;;;;;;;13.17;2.93;;;;;;;;;;5113546;28;20217;-76
2022/12/29 01:03:40;;;;;;;15.27;2.67;;;;;;;;;;5113846;28;20225;-76
2022/12/29 01:06:09;;;;;;;13.97;2.47;;;;;;;;;;5113898;28;20280;-76
2022/12/29 01:08:36;;;;;;;18.87;3.10;;;;;;;;;;5114172;28;20190;-77
2022/12/29 01:11:05;;;;;;;17.27;3.10;;;;;;;;;;5113507;28;20280;-76
2022/12/29 01:13:32;;;;;;;25.83;2.83;;;;;;;;;;5113343;28;20205;-76
2022/12/29 01:16:00;;;;;;;18.53;2.80;;;;;;;;;;5113614;28;20222;-76
2022/12/29 01:18:27;;;;;;;14.77;2.10;;;;;;;;;;5113548;28;20233;-76
2022/12/29 01:21:00;;;;;;;14.97;2.57;;;;;;;;;;5113990;28;20296;-76
2022/12/29 01:23:27;;;;;;;15.03;2.63;;;;;;;;;;5113516;28;20217;-76
2022/12/29 01:25:54;;;;;;;15.23;2.50;;;;;;;;;;5113095;28;20316;-76
2022/12/29 01:28:23;;;;;;;14.80;2.43;;;;;;;;;;5129872;27;20287;-76
2022/12/29 01:30:50;;;;;;;15.17;2.20;;;;;;;;;;5133949;27;20755;-76
2022/12/29 01:33:17;;;;;;;19.20;2.93;;;;;;;;;;5134108;27;20197;-76
2022/12/29 01:35:44;;;;;;;17.77;2.33;;;;;;;;;;5133524;27;20239;-76
2022/12/29 01:38:11;;;;;;;22.30;3.10;;;;;;;;;;5133830;27;20224;-76
2022/12/29 01:40:44;;;;;;;15.43;2.80;;;;;;;;;;5133932;27;20292;-77
2022/12/29 01:43:12;;;;;;;15.57;2.93;;;;;;;;;;5133110;27;20292;-77
2022/12/29 01:45:42;;;;;;;16.63;2.70;;;;;;;;;;5133445;27;20288;-77
2022/12/29 01:48:10;;;;;;;19.80;2.57;;;;;;;;;;5133680;27;20193;-75
2022/12/29 01:50:41;;;;;;;14.43;2.33;;;;;;;;;;5133743;27;20244;-76
2022/12/29 01:53:10;;;;;;;22.33;3.20;;;;;;;;;;5133448;27;20638;-76
2022/12/29 01:55:40;;;;;;;24.20;2.97;;;;;;;;;;5133475;27;20236;-75
2022/12/29 01:58:08;;;;;;;19.80;2.90;;;;;;;;;;5133646;27;20240;-76
2022/12/29 02:00:35;;;;;;;15.77;2.63;;;;;;;;;;5133028;27;20193;-76
2022/12/29 02:03:04;;;;;;;15.00;2.80;;;;;;;;;;5133244;27;20257;-76
2022/12/29 02:05:33;;;;;;;17.97;2.87;;;;;;;;;;5133501;27;20236;-76
2022/12/29 02:08:01;;;;;;;19.23;2.90;;;;;;;;;;5133517;27;20266;-76
2022/12/29 02:10:30;;;;;;;16.27;2.60;;;;;;;;;;5132927;27;20220;-76
2022/12/29 02:12:57;;;;;;;14.37;2.63;;;;;;;;;;5133070;27;20234;-76
2022/12/29 02:15:29;;;;;;;13.13;1.80;;;;;;;;;;5133004;27;20233;-76
2022/12/29 02:18:03;;;;;;;17.60;2.50;;;;;;;;;;5132846;27;20217;-76
2022/12/29 02:20:48;;;;;;;14.73;2.30;;;;;;;;;;5132717;27;20224;-77
2022/12/29 02:23:31;;;;;;;19.00;2.80;;;;;;;;;;5132534;27;20612;-76
2022/12/29 02:26:15;;;;;;;12.67;2.43;;;;;;;;;;5132472;27;20312;-77
2022/12/29 02:28:55;;;;;;;13.30;2.37;;;;;;;;;;5132858;27;20241;-76
2022/12/29 02:31:26;;;;;;;13.73;2.47;;;;;;;;;;5132498;27;20661;-76
2022/12/29 02:34:00;;;;;;;16.90;2.17;;;;;;;;;;5132141;27;20246;-77
2022/12/29 02:36:31;;;;;;;14.33;2.73;;;;;;;;;;5123916;27;20236;-76
2022/12/29 02:39:03;;;;;;;16.13;2.73;;;;;;;;;;5111602;28;20221;-77
2022/12/29 02:41:33;;;;;;;17.50;2.70;;;;;;;;;;5112381;28;20278;-77
2022/12/29 02:44:02;;;;;;;14.07;2.23;;;;;;;;;;5112119;28;20225;-76
2022/12/29 02:46:36;;;;;;;20.73;2.97;;;;;;;;;;5111695;28;20502;-76
2022/12/29 02:49:07;;;;;;;20.00;2.93;;;;;;;;;;5111922;28;20232;-77
2022/12/29 02:51:37;;;;;;;14.23;2.77;;;;;;;;;;5112132;28;20214;-76
2022/12/29 02:56:49;;;;;;;15.90;2.07;;;;;;;;;;5112125;28;20200;-76
2022/12/29 02:59:17;;;;;;;13.93;2.33;;;;;;;;;;5111945;28;20284;-76
2022/12/29 03:04:41;;;;;;;14.30;2.50;;;;;;;;;;5110635;28;20229;-76
2022/12/29 03:07:13;;;;;;;16.77;2.67;;;;;;;;;;5111520;28;20221;-76
2022/12/29 03:09:45;;;;;;;17.70;2.33;;;;;;;;;;5111582;28;20280;-76
2022/12/29 03:12:16;;;;;;;20.53;3.17;;;;;;;;;;5111742;28;20230;-75
2022/12/29 03:17:40;;;;;;;19.23;3.30;;;;;;;;;;5111845;28;20201;-76
2022/12/29 03:20:09;;;;;;;16.83;2.60;;;;;;;;;;5111678;28;20669;-75
2022/12/29 03:22:38;;;;;;;18.10;2.70;;;;;;;;;;5111299;28;20629;-77
2022/12/29 03:25:08;;;;;;;12.50;2.23;;;;;;;;;;5111710;28;20225;-76
2022/12/29 03:27:37;;;;;;;14.60;2.30;;;;;;;;;;5121842;28;20652;-77
2022/12/29 03:30:05;;;;;;;18.20;2.70;;;;;;;;;;5132007;28;20280;-76
2022/12/29 03:32:34;;;;;;;16.93;2.30;;;;;;;;;;5132280;28;20239;-76
2022/12/29 03:35:03;;;;;;;15.47;2.43;;;;;;;;;;5131887;28;20284;-76
2022/12/29 03:37:32;;;;;;;11.90;2.00;;;;;;;;;;5131649;28;20248;-76
2022/12/29 03:39:59;;;;;;;14.07;1.97;;;;;;;;;;5132317;28;20634;-76
2022/12/29 03:42:29;;;;;;;18.00;2.97;;;;;;;;;;5131807;28;20228;-76
2022/12/29 03:44:57;;;;;;;15.10;2.30;;;;;;;;;;5133920;27;20192;-75
2022/12/29 03:47:25;;;;;;;15.27;2.90;;;;;;;;;;5136011;27;20847;-75
2022/12/29 03:49:53;;;;;;;16.63;2.57;;;;;;;;;;5135769;27;20229;-76
2022/12/29 03:52:21;;;;;;;14.87;2.13;;;;;;;;;;5135653;27;20707;-76
2022/12/29 03:54:48;;;;;;;9.83;2.07;;;;;;;;;;5135764;27;20224;-75
2022/12/29 03:57:16;;;;;;;12.33;2.30;;;;;;;;;;5135579;27;20229;-75
2022/12/29 03:59:43;;;;;;;12.77;2.23;;;;;;;;;;5135743;27;20284;-75
2022/12/29 04:02:10;;;;;;;13.57;2.60;;;;;;;;;;5135821;27;20256;-76
2022/12/29 04:04:37;;;;;;;16.80;2.63;;;;;;;;;;5135697;27;20233;-76
2022/12/29 04:07:04;;;;;;;13.00;2.20;;;;;;;;;;5135106;27;20213;-76
2022/12/29 04:09:33;;;;;;;18.47;2.70;;;;;;;;;;5135812;27;20221;-75
2022/12/29 04:12:00;;;;;;;18.40;2.30;;;;;;;;;;5135717;27;20232;-75
2022/12/29 04:14:27;;;;;;;15.33;2.40;;;;;;;;;;5135518;27;20232;-75
2022/12/29 04:16:54;;;;;;;23.50;3.00;;;;;;;;;;5135352;27;20641;-76
2022/12/29 04:19:22;;;;;;;19.87;2.67;;;;;;;;;;5135428;27;20213;-76
2022/12/29 04:21:48;;;;;;;18.67;2.80;;;;;;;;;;5135231;27;20213;-76
2022/12/29 04:24:15;;;;;;;14.03;2.40;;;;;;;;;;5135593;27;20651;-76
2022/12/29 04:26:44;;;;;;;18.50;2.30;;;;;;;;;;5135255;27;20260;-76
2022/12/29 04:29:11;;;;;;;23.07;3.00;;;;;;;;;;5135231;27;20239;-76
2022/12/29 04:31:38;;;;;;;19.77;2.60;;;;;;;;;;5134901;27;20246;-76
2022/12/29 04:34:05;;;;;;;19.80;2.67;;;;;;;;;;5135416;27;20277;-76
2022/12/29 04:36:32;;;;;;;14.47;2.53;;;;;;;;;;5134452;27;20246;-76
2022/12/29 04:39:00;;;;;;;19.70;3.37;;;;;;;;;;5135054;27;20625;-76
2022/12/29 04:41:27;;;;;;;13.60;3.27;;;;;;;;;;5135111;27;20232;-76
2022/12/29 04:43:56;;;;;;;18.87;3.00;;;;;;;;;;5135275;27;20232;-76
2022/12/29 04:46:23;;;;;;;11.67;2.10;;;;;;;;;;5134382;27;20236;-75
2022/12/29 04:48:50;;;;;;;13.90;2.40;;;;;;;;;;5134677;27;20419;-75
2022/12/29 04:51:17;;;;;;;17.13;3.27;;;;;;;;;;5134467;27;20235;-76
2022/12/29 04:53:45;;;;;;;15.17;2.27;;;;;;;;;;5134725;27;20231;-76
2022/12/29 04:56:12;;;;;;;13.70;2.17;;;;;;;;;;5134282;27;20694;-76
2022/12/29 04:58:39;;;;;;;14.57;2.50;;;;;;;;;;5134617;27;20201;-76
2022/12/29 05:01:07;;;;;;;13.33;2.23;;;;;;;;;;5134404;27;20283;-75
2022/12/29 05:03:35;;;;;;;15.47;2.77;;;;;;;;;;5134397;27;20240;-76
2022/12/29 05:06:02;;;;;;;20.30;2.40;;;;;;;;;;5133911;27;20277;-76
2022/12/29 05:08:30;;;;;;;16.03;2.70;;;;;;;;;;5134410;27;20252;-76
2022/12/29 05:10:57;;;;;;;15.73;2.30;;;;;;;;;;5134730;27;20565;-76
2022/12/29 05:13:24;;;;;;;14.43;2.20;;;;;;;;;;5134317;27;20219;-76
2022/12/29 05:15:51;;;;;;;15.40;2.70;;;;;;;;;;5134144;27;20284;-76
2022/12/29 05:18:20;;;;;;;14.47;2.17;;;;;;;;;;5133582;27;20744;-75
2022/12/29 05:20:48;;;;;;;16.47;2.27;;;;;;;;;;5134124;27;20228;-76
2022/12/29 05:23:16;;;;;;;14.90;2.43;;;;;;;;;;5134171;27;20199;-76
2022/12/29 05:25:44;;;;;;;21.17;2.77;;;;;;;;;;5134134;27;20204;-76
2022/12/29 05:28:12;;;;;;;15.67;2.60;;;;;;;;;;5134027;27;20229;-77
2022/12/29 05:30:39;;;;;;;15.07;2.90;;;;;;;;;;5133924;27;20228;-76
2022/12/29 05:33:07;;;;;;;19.97;2.87;;;;;;;;;;5133344;27;20233;-76
2022/12/29 05:35:35;;;;;;;17.67;2.40;;;;;;;;;;5133952;27;20219;-76
2022/12/29 05:38:02;;;;;;;17.20;2.60;;;;;;;;;;5133809;27;20673;-75
2022/12/29 05:40:30;;;;;;;16.23;2.50;;;;;;;;;;5133648;27;20192;-77
2022/12/29 05:42:57;;;;;;;23.37;2.87;;;;;;;;;;5133682;27;20261;-76
2022/12/29 05:45:24;;;;;;;18.53;3.33;;;;;;;;;;5133939;27;20232;-77
2022/12/29 05:47:51;;;;;;;18.17;3.00;;;;;;;;;;5132873;27;20311;-76
2022/12/29 05:50:18;;;;;;;16.07;2.50;;;;;;;;;;5133579;27;20231;-76
2022/12/29 05:52:47;;;;;;;16.47;2.83;;;;;;;;;;5133773;27;20235;-77
2022/12/29 05:55:14;;;;;;;19.50;2.40;;;;;;;;;;5133569;27;20605;-77
2022/12/29 05:57:41;;;;;;;22.40;3.40;;;;;;;;;;5133181;27;20636;-78
2022/12/29 06:00:09;;;;;;;18.83;3.30;;;;;;;;;;5133490;27;20221;-77
2022/12/29 06:02:37;;;;;;;22.60;3.17;;;;;;;;;;5132681;27;20359;-76
2022/12/29 06:05:05;;;;;;;18.90;2.60;;;;;;;;;;5133426;27;20284;-76
2022/12/29 06:07:32;;;;;;;19.30;2.73;;;;;;;;;;5132870;27;20232;-74
2022/12/29 06:10:00;;;;;;;17.73;2.87;;;;;;;;;;5133384;27;20691;-76
2022/12/29 06:12:27;;;;;;;18.57;3.17;;;;;;;;;;5133258;27;20221;-75
2022/12/29 06:14:55;;;;;;;18.10;2.90;;;;;;;;;;5133069;27;20229;-75
2022/12/29 06:17:22;;;;;;;20.67;2.90;;;;;;;;;;5132194;27;20247;-76
2022/12/29 06:19:49;;;;;;;14.20;2.37;;;;;;;;;;5132648;27;20224;-76
2022/12/29 06:22:16;;;;;;;16.70;2.77;;;;;;;;;;5133576;27;20239;-76
2022/12/29 06:24:43;;;;;;;19.67;2.77;;;;;;;;;;5132957;27;20318;-76
2022/12/29 06:27:13;;;;;;;19.60;2.43;;;;;;;;;;5132842;27;20311;-76
2022/12/29 06:29:40;;;;;;;21.33;3.03;;;;;;;;;;5132859;27;20203;-77
2022/12/29 06:32:08;;;;;;;17.43;2.37;;;;;;;;;;5132597;27;20729;-77
2022/12/29 06:34:35;;;;;;;23.17;2.70;;;;;;;;;;5132707;27;20213;-77
2022/12/29 06:37:02;;;;;;;14.10;2.73;;;;;;;;;;5132608;27;20808;-76
2022/12/29 06:39:30;;;;;;;14.07;2.70;;;;;;;;;;5132900;27;20220;-78
2022/12/29 06:41:57;;;;;;;15.87;2.60;;;;;;;;;;5132949;27;20224;-76
2022/12/29 06:44:25;;;;;;;18.10;2.67;;;;;;;;;;5132843;27;20284;-77
2022/12/29 06:46:52;;;;;;;17.27;2.40;;;;;;;;;;5132397;27;20242;-76
2022/12/29 06:49:20;;;;;;;18.30;3.17;;;;;;;;;;5132498;27;20263;-77
2022/12/29 06:51:47;;;;;;;23.93;3.20;;;;;;;;;;5132789;27;20216;-76
2022/12/29 06:54:14;;;;;;;20.70;3.13;;;;;;;;;;5132652;27;20235;-76
2022/12/29 06:56:41;;;;;;;16.63;2.73;;;;;;;;;;5132753;27;20287;-76
2022/12/29 06:59:09;;;;;;;18.50;3.10;;;;;;;;;;5132445;27;20242;-76
2022/12/29 07:01:37;;;;;;;16.00;2.83;;;;;;;;;;5131792;27;20792;-76
2022/12/29 07:04:05;;;;;;;15.17;2.63;;;;;;;;;;5132567;27;20204;-76
2022/12/29 07:06:32;;;;;;;21.50;3.13;;;;;;;;;;5132909;28;20669;-76
2022/12/29 07:08:59;;;;;;;15.13;2.60;;;;;;;;;;5132190;28;20326;-76
2022/12/29 07:11:27;;;;;;;13.77;2.50;;;;;;;;;;5132287;28;20292;-76
2022/12/29 07:13:54;;;;;;;20.37;3.30;;;;;;;;;;5132343;28;20669;-77
2022/12/29 07:16:21;;;;;;;20.50;2.93;;;;;;;;;;5132053;28;20216;-76
2022/12/29 07:18:49;;;;;;;20.27;3.07;;;;;;;;;;5133720;27;20280;-77
2022/12/29 07:21:17;;;;;;;20.90;3.40;;;;;;;;;;5136258;27;20731;-77
2022/12/29 07:23:44;;;;;;;15.83;2.83;;;;;;;;;;5136769;27;20258;-76
2022/12/29 07:26:13;;;;;;;18.43;2.73;;;;;;;;;;5136500;27;20220;-76
2022/12/29 07:28:41;;;;;;;15.43;2.77;;;;;;;;;;5135914;27;20677;-77
2022/12/29 07:31:15;;;;;;;21.27;3.03;;;;;;;;;;5136051;27;20270;-77
2022/12/29 07:33:43;;;;;;;19.67;3.23;;;;;;;;;;5136585;27;20200;-75
2022/12/29 07:36:11;;;;;;;16.63;3.10;;;;;;;;;;5136496;27;20213;-76
2022/12/29 07:38:38;;;;;;;20.77;3.03;;;;;;;;;;5136201;27;20327;-74
2022/12/29 07:41:06;;;;;;;22.50;3.63;;;;;;;;;;5136109;27;20217;-75
2022/12/29 07:43:33;;;;;;;19.30;3.20;;;;;;;;;;5135945;27;20224;-74
2022/12/29 07:46:00;;;;;;;21.50;3.53;;;;;;;;;;5135983;27;20232;-76
2022/12/29 07:48:27;;;;;;;12.27;2.60;;;;;;;;;;5135783;27;20863;-75
2022/12/29 07:50:55;;;;;;;17.67;3.10;;;;;;;;;;5135948;27;20743;-77
2022/12/29 07:53:24;;;;;;;20.23;3.07;;;;;;;;;;5134205;27;20239;-76
2022/12/29 07:55:51;;;;;;;19.13;2.50;;;;;;;;;;5127617;27;20197;-76
2022/12/29 07:58:18;;;;;;;18.33;2.67;;;;;;;;;;5131221;27;20851;-77
2022/12/29 08:00:46;;;;;;;16.00;2.80;;;;;;;;;;5134209;27;20207;-77
2022/12/29 08:03:13;;;;;;;22.50;2.87;;;;;;;;;;5133507;27;20256;-77
2022/12/29 08:05:40;;;;;;;19.57;3.03;;;;;;;;;;5125902;27;20728;-76
2022/12/29 08:08:07;;;;;;;14.87;2.33;;;;;;;;;;5133337;27;20253;-75
2022/12/29 08:10:36;;;;;;;21.73;2.90;;;;;;;;;;5133162;27;20228;-76
2022/12/29 08:13:03;;;;;;;22.63;3.03;;;;;;;;;;5132928;27;20293;-76
2022/12/29 08:15:30;;;;;;;15.90;2.97;;;;;;;;;;5133373;27;20228;-75
2022/12/29 08:17:57;;;;;;;18.57;2.90;;;;;;;;;;5132780;27;20243;-76
2022/12/29 08:20:24;;;;;;;19.33;2.60;;;;;;;;;;5132745;27;20227;-76
2022/12/29 08:22:52;;;;;;;18.60;3.37;;;;;;;;;;5132625;27;20654;-77
2022/12/29 08:25:19;;;;;;;15.73;3.10;;;;;;;;;;5133053;27;20622;-77
2022/12/29 08:27:48;;;;;;;23.27;3.17;;;;;;;;;;5132747;27;20687;-75
2022/12/29 08:30:16;;;;;;;25.50;3.20;;;;;;;;;;5131540;27;20231;-76
2022/12/29 08:32:43;;;;;;;19.00;3.37;;;;;;;;;;5133179;27;20201;-76
2022/12/29 08:35:10;;;;;;;20.83;3.70;;;;;;;;;;5132467;27;20229;-77
2022/12/29 08:37:37;;;;;;;22.83;3.60;;;;;;;;;;5133012;27;20689;-76
2022/12/29 08:40:05;;;;;;;22.07;3.57;;;;;;;;;;5132376;27;20201;-76
2022/12/29 08:42:33;;;;;;;17.77;3.00;;;;;;;;;;5132323;27;20225;-76
2022/12/29 08:45:02;;;;;;;19.87;3.60;;;;;;;;;;5131781;27;20196;-77
2022/12/29 08:47:29;;;;;;;14.10;2.97;;;;;;;;;;5132928;27;20228;-77
2022/12/29 08:49:56;;;;;;;20.60;4.20;;;;;;;;;;5132357;27;20255;-77
2022/12/29 08:52:24;;;;;;;19.10;4.17;;;;;;;;;;5132718;27;20221;-76
2022/12/29 08:54:51;;;;;;;17.87;4.87;;;;;;;;;;5132211;27;20228;-76
2022/12/29 08:57:18;;;;;;;22.70;6.10;;;;;;;;;;5132020;27;20255;-74
2022/12/29 08:59:45;;;;;;;17.57;3.90;;;;;;;;;;5132272;27;20201;-77
2022/12/29 09:02:14;;;;;;;18.20;3.53;;;;;;;;;;5132544;27;20979;-76
2022/12/29 09:04:41;;;;;;;17.57;3.33;;;;;;;;;;5124314;27;20204;-76
2022/12/29 09:07:09;;;;;;;17.40;3.00;;;;;;;;;;5132507;27;20239;-77
2022/12/29 09:09:36;;;;;;;24.50;3.53;;;;;;;;;;5132384;27;20256;-77
2022/12/29 09:12:03;;;;;;;17.40;2.83;;;;;;;;;;5131875;27;20225;-76
2022/12/29 09:14:30;;;;;;;16.57;3.40;;;;;;;;;;5132498;27;20216;-77
2022/12/29 09:19:43;;;;;;;26.37;4.33;;;;;;;;;;5132944;27;20204;-77
2022/12/29 09:22:11;;;;;;;20.63;3.83;;;;;;;;;;5133153;27;20305;-78
2022/12/29 09:24:38;;;;;;;23.90;3.47;;;;;;;;;;5131949;27;20228;-77
2022/12/29 09:27:05;;;;;;;20.70;3.57;;;;;;;;;;5131122;27;20221;-77
2022/12/29 09:29:32;;;;;;;18.70;3.37;;;;;;;;;;5131809;27;20633;-76
2022/12/29 09:31:59;;;;;;;17.30;3.40;;;;;;;;;;5132154;27;20295;-76
2022/12/29 09:34:27;;;;;;;23.93;3.40;;;;;;;;;;5132048;27;20596;-75
2022/12/29 09:36:56;;;;;;;21.37;3.73;;;;;;;;;;5132301;27;20228;-77
2022/12/29 09:39:23;;;;;;;18.63;3.53;;;;;;;;;;5131977;27;20220;-78
2022/12/29 09:41:54;;;;;;;19.03;3.47;;;;;;;;;;5130739;27;20696;-78
2022/12/29 09:44:24;;;;;;;15.37;3.40;;;;;;;;;;5131519;27;20613;-77
2022/12/29 09:46:53;;;;;;;19.33;3.20;;;;;;;;;;5130940;27;20235;-78
2022/12/29 09:49:26;;;;;;;21.00;3.43;;;;;;;;;;5131947;27;20252;-78
2022/12/29 09:51:54;;;;;;;11.73;2.67;;;;;;;;;;5131112;27;20293;-77
2022/12/29 09:54:32;;;;;;;15.73;2.77;;;;;;;;;;5131024;27;20197;-76
2022/12/29 09:57:00;;;;;;;17.93;3.47;;;;;;;;;;5131270;27;20646;-77
2022/12/29 09:59:31;;;;;;;19.33;3.53;;;;;;;;;;5131240;27;20755;-76
2022/12/29 10:01:59;;;;;;;15.93;3.10;;;;;;;;;;5130838;27;20232;-78
2022/12/29 10:04:27;;;;;;;17.30;3.10;;;;;;;;;;5131816;27;20205;-76
2022/12/29 10:06:58;;;;;;;15.73;3.10;;;;;;;;;;5130820;27;20580;-76
2022/12/29 10:09:28;;;;;;;13.30;2.60;;;;;;;;;;5130580;27;20711;-76
2022/12/29 10:12:03;;;;;;;16.63;3.07;;;;;;;;;;5130904;27;20228;-76
2022/12/29 10:14:38;;;;;;;14.27;2.80;;;;;;;;;;5130807;27;20239;-75
2022/12/29 10:17:12;;;;;;;13.73;2.67;;;;;;;;;;5131582;27;20224;-75
2022/12/29 10:19:55;;;;;;;12.37;2.67;;;;;;;;;;5132076;27;20266;-77
2022/12/29 10:22:31;;;;;;;14.13;3.60;;;;;;;;;;5131080;27;20708;-77
2022/12/29 10:24:58;;;;;;;12.77;3.60;;;;;;;;;;5131009;27;20624;-77
2022/12/29 10:27:27;;;;;;;12.67;2.80;;;;;;;;;;5130753;27;20236;-76
2022/12/29 10:29:56;;;;;;;11.73;2.70;;;;;;;;;;5131106;27;20233;-77
2022/12/29 10:32:27;;;;;;;9.67;2.80;;;;;;;;;;5130987;27;20281;-77
2022/12/29 10:34:56;;;;;;;11.10;2.50;;;;;;;;;;5131121;27;20228;-76
2022/12/29 10:37:29;;;;;;;10.23;2.50;;;;;;;;;;5130034;27;20285;-77
2022/12/29 10:39:57;;;;;;;11.57;2.77;;;;;;;;;;5130713;27;20200;-77
2022/12/29 10:42:28;;;;;;;14.77;2.83;;;;;;;;;;5130494;27;20300;-77
2022/12/29 10:44:55;;;;;;;13.67;2.70;;;;;;;;;;5130507;27;20201;-76
2022/12/29 10:47:24;;;;;;;15.17;2.67;;;;;;;;;;5128915;27;20287;-78
2022/12/29 10:49:52;;;;;;;9.90;2.60;;;;;;;;;;5140859;27;20217;-78
2022/12/29 10:52:20;;;;;;;11.80;2.50;;;;;;;;;;5129615;27;20280;-77
2022/12/29 10:54:51;;;;;;;15.50;2.53;;;;;;;;;;5129007;27;20235;-77
2022/12/29 10:57:23;;;;;;;10.93;2.63;;;;;;;;;;5136058;27;20222;-77
2022/12/29 10:59:52;;;;;;;12.37;2.43;;;;;;;;;;5138441;27;20245;-78
2022/12/29 11:02:40;;;;;;;13.80;3.07;;;;;;;;;;5131817;27;20221;-74
2022/12/29 11:05:15;;;;;;;10.03;2.83;;;;;;;;;;5137324;27;20189;-77
2022/12/29 11:07:42;;;;;;;11.57;2.63;;;;;;;;;;5135221;27;20189;-74
2022/12/29 11:10:20;;;;;;;12.65;2.60;;;;;;;;;;5138847;27;20320;-77
2022/12/29 11:12:57;;;;;;;15.90;2.87;;;;;;;;;;5133639;27;21113;-77
2022/12/29 11:15:25;;;;;;;11.00;2.72;;;;;;;;;;5129011;28;20727;-75
2022/12/29 11:17:54;;;;;;;9.20;2.50;;;;;;;;;;5127747;27;20217;-78
2022/12/29 11:20:28;;;;;;;16.52;3.00;;;;;;;;;;5133817;27;20240;-79
2022/12/29 11:22:55;;;;;;;10.48;3.35;;;;;;;;;;5133673;27;20198;-77
2022/12/29 11:25:23;;;;;;;11.98;2.85;;;;;;;;;;5129406;28;20228;-77
2022/12/29 11:27:56;;;;;;;10.15;2.53;;;;;;;;;;5131697;27;20192;-77
2022/12/29 11:30:26;;;;;;;9.23;2.70;;;;;;;;;;5133814;27;20220;-78
2022/12/29 11:32:54;;;;;;;14.63;2.60;;;;;;;;;;5130468;28;20220;-77
2022/12/29 11:35:30;;;;;;;9.75;2.50;;;;;;;;;;5129194;28;20636;-77
2022/12/29 11:37:59;;;;;;;8.90;2.70;;;;;;;;;;5130170;28;21033;-77
2022/12/29 11:40:27;;;;;;;18.13;3.08;;;;;;;;;;5130441;28;20204;-77
2022/12/29 11:42:55;;;;;;;11.02;2.45;;;;;;;;;;5130943;28;20285;-77
2022/12/29 11:45:24;;;;;;;12.48;2.83;;;;;;;;;;5129450;28;20254;-76
2022/12/29 11:47:54;;;;;;;10.98;3.22;;;;;;;;;;5130119;28;20223;-77
2022/12/29 11:50:23;;;;;;;10.45;2.80;;;;;;;;;;5129119;28;20674;-77
2022/12/29 11:52:51;;;;;;;9.85;2.53;;;;;;;;;;5130259;28;20233;-76
2022/12/29 11:55:20;;;;;;;12.65;2.40;;;;;;;;;;5129535;28;20201;-77
2022/12/29 11:57:48;;;;;;;12.32;2.08;;;;;;;;;;5129843;27;20630;-77
2022/12/29 12:00:16;;;;;;;12.18;2.60;;;;;;;;;;5129793;28;20212;-78
2022/12/29 12:02:46;;;;;;;15.05;3.05;;;;;;;;;;5129553;28;20799;-77
2022/12/29 12:05:27;;;;;;;13.57;2.53;;;;;;;;;;5130115;27;20276;-77
2022/12/29 12:07:58;;;;;;;12.43;2.67;;;;;;;;;;5133804;27;20228;-76
2022/12/29 12:10:29;;;;;;;12.45;2.33;;;;;;;;;;5133251;27;20729;-77
2022/12/29 12:13:03;;;;;;;19.17;3.17;;;;;;;;;;5133773;27;20197;-77
2022/12/29 12:15:32;;;;;;;13.60;2.65;;;;;;;;;;5136446;27;20199;-77
2022/12/29 12:18:03;;;;;;;10.88;2.72;;;;;;;;;;5134755;27;20212;-77
2022/12/29 12:20:38;;;;;;;9.65;2.38;;;;;;;;;;5132663;27;20228;-78
2022/12/29 12:23:10;;;;;;;11.35;3.10;;;;;;;;;;5137947;27;20275;-76
2022/12/29 12:25:40;;;;;;;12.50;2.70;;;;;;;;;;5133384;27;20208;-76
2022/12/29 12:28:12;;;;;;;12.93;2.30;;;;;;;;;;5130106;27;20189;-75
2022/12/29 12:30:42;;;;;;;14.40;2.90;;;;;;;;;;5132482;27;20273;-76
2022/12/29 12:33:16;;;;;;;9.88;2.28;;;;;;;;;;5132957;27;20235;-75
2022/12/29 12:35:46;;;;;;;12.65;2.60;;;;;;;;;;5134009;27;20212;-78
2022/12/29 12:38:17;;;;;;;12.68;2.35;;;;;;;;;;5133247;27;20225;-78
2022/12/29 12:40:53;;;;;;;11.07;2.30;;;;;;;;;;5131701;27;20227;-78
2022/12/29 12:43:31;;;;;;;10.90;2.42;;;;;;;;;;5127327;27;20296;-76
2022/12/29 12:46:04;;;;;;;15.13;3.17;;;;;;;;;;5129624;27;20305;-77
2022/12/29 12:48:44;;;;;;;9.82;2.53;;;;;;;;;;5130836;27;20221;-76
2022/12/29 12:51:16;;;;;;;14.02;2.97;;;;;;;;;;5129526;27;20751;-76
2022/12/29 12:53:50;;;;;;;12.88;2.67;;;;;;;;;;5137526;27;20283;-75
2022/12/29 12:56:24;;;;;;;12.05;3.05;;;;;;;;;;5144601;27;20279;-76
2022/12/29 12:58:54;;;;;;;15.32;2.85;;;;;;;;;;5143762;27;20694;-75
2022/12/29 13:01:30;;;;;;;10.70;2.53;;;;;;;;;;5140016;27;20311;-76
2022/12/29 13:04:04;;;;;;;12.13;2.45;;;;;;;;;;5142774;27;20308;-77
2022/12/29 13:06:39;;;;;;;12.07;2.78;;;;;;;;;;5142760;27;20224;-76
2022/12/29 13:09:20;;;;;;;15.32;2.60;;;;;;;;;;5137507;27;20193;-76
2022/12/29 13:11:54;;;;;;;13.63;2.80;;;;;;;;;;5125380;27;20204;-76
2022/12/29 13:14:26;;;;;;;14.48;2.83;;;;;;;;;;5132261;27;20235;-76
2022/12/29 13:16:57;;;;;;;13.55;2.60;;;;;;;;;;5131926;27;20627;-76
2022/12/29 13:19:27;;;;;;;13.13;2.50;;;;;;;;;;5132475;27;20475;-77
2022/12/29 13:22:03;;;;;;;15.50;2.45;;;;;;;;;;5132723;27;20236;-76
2022/12/29 13:24:34;;;;;;;13.77;2.53;;;;;;;;;;5131899;27;20635;-77
2022/12/29 13:27:05;;;;;;;16.77;2.77;;;;;;;;;;5132036;27;20240;-77
2022/12/29 13:29:34;;;;;;;12.60;3.17;;;;;;;;;;5131110;27;20259;-76
2022/12/29 13:32:09;;;;;;;11.40;2.73;;;;;;;;;;5131498;27;20283;-76
2022/12/29 13:34:39;;;;;;;12.18;2.60;;;;;;;;;;5139540;27;20216;-76
2022/12/29 13:37:11;;;;;;;18.70;3.05;;;;;;;;;;5140375;27;20708;-76
2022/12/29 13:39:40;;;;;;;14.23;2.77;;;;;;;;;;5141309;27;20224;-75
2022/12/29 13:42:08;;;;;;;13.70;3.17;;;;;;;;;;5139858;27;20568;-76
2022/12/29 13:44:36;;;;;;;12.57;2.77;;;;;;;;;;5141573;27;20280;-76
2022/12/29 13:47:07;;;;;;;18.07;3.53;;;;;;;;;;5139997;27;20686;-76
2022/12/29 13:49:34;;;;;;;14.43;2.77;;;;;;;;;;5139868;27;20317;-76
2022/12/29 13:52:10;;;;;;;14.47;2.70;;;;;;;;;;5140217;27;20223;-75
2022/12/29 13:54:41;;;;;;;12.70;3.00;;;;;;;;;;5140370;27;20195;-75
2022/12/29 13:57:11;;;;;;;13.20;2.93;;;;;;;;;;5136727;27;20245;-75
2022/12/29 13:59:42;;;;;;;15.00;2.63;;;;;;;;;;5140895;27;20224;-75
2022/12/29 14:02:13;;;;;;;16.73;3.00;;;;;;;;;;5136831;27;20225;-76
2022/12/29 14:04:56;;;;;;;12.77;2.50;;;;;;;;;;5140404;27;20624;-75
2022/12/29 14:07:23;;;;;;;16.03;3.77;;;;;;;;;;5138696;27;20213;-75
2022/12/29 14:09:52;;;;;;;13.87;2.70;;;;;;;;;;5141293;27;20261;-76
2022/12/29 14:12:21;;;;;;;11.10;2.13;;;;;;;;;;5139844;27;20205;-76
2022/12/29 14:14:50;;;;;;;9.50;2.00;;;;;;;;;;5141384;27;20216;-75
2022/12/29 14:17:19;;;;;;;7.50;1.43;;;;;;;;;;5139675;27;20196;-76
2022/12/29 14:19:47;;;;;;;7.30;0.90;;;;;;;;;;5141495;27;20279;-77
2022/12/29 14:22:14;;;;;;;3.77;0.90;;;;;;;;;;5139782;27;20216;-77
2022/12/29 14:24:43;;;;;;;3.37;0.90;;;;;;;;;;5139723;27;20220;-75
2022/12/29 14:27:28;;;;;;;5.80;1.30;;;;;;;;;;5137216;27;20276;-76
2022/12/29 14:29:57;;;;;;;4.17;1.00;;;;;;;;;;5135231;27;20635;-76
2022/12/29 14:32:39;;;;;;;3.20;1.00;;;;;;;;;;5139305;27;20287;-76
2022/12/29 14:35:25;;;;;;;7.83;1.10;;;;;;;;;;5140799;27;20216;-74
2022/12/29 14:38:06;;;;;;;5.17;1.37;;;;;;;;;;5136060;27;20633;-76
2022/12/29 14:40:34;;;;;;;5.30;1.27;;;;;;;;;;5137446;27;20201;-75
2022/12/29 14:43:01;;;;;;;6.07;1.20;;;;;;;;;;5138930;27;20256;-76
2022/12/29 14:45:32;;;;;;;6.37;1.30;;;;;;;;;;5140259;27;20275;-76
2022/12/29 14:48:00;;;;;;;4.60;1.40;;;;;;;;;;5138076;27;20197;-75
2022/12/29 14:50:37;;;;;;;7.13;1.13;;;;;;;;;;5138277;27;20310;-76
2022/12/29 14:53:06;;;;;;;5.00;1.23;;;;;;;;;;5138667;27;20228;-76
2022/12/29 14:55:40;;;;;;;6.40;1.67;;;;;;;;;;5137558;27;20192;-75
2022/12/29 14:58:08;;;;;;;5.57;1.40;;;;;;;;;;5138567;27;20871;-74
2022/12/29 15:00:37;;;;;;;5.23;1.50;;;;;;;;;;5138960;27;20227;-76
2022/12/29 15:03:06;;;;;;;5.30;1.37;;;;;;;;;;5138394;27;20228;-76
2022/12/29 15:05:36;;;;;;;7.57;1.70;;;;;;;;;;5137877;27;20195;-76
2022/12/29 15:08:04;;;;;;;7.50;2.60;;;;;;;;;;5138958;27;20223;-76
2022/12/29 15:10:35;;;;;;;8.07;3.53;;;;;;;;;;5137618;27;20212;-77
2022/12/29 15:13:05;;;;;;;9.13;2.20;;;;;;;;;;5138165;27;20227;-76
2022/12/29 15:15:38;;;;;;;8.83;2.87;;;;;;;;;;5137825;27;20193;-76
2022/12/29 15:18:15;;;;;;;13.63;3.33;;;;;;;;;;5138467;27;20270;-76
2022/12/29 15:20:43;;;;;;;7.37;1.93;;;;;;;;;;5139066;27;20672;-76
2022/12/29 15:23:14;;;;;;;9.40;2.13;;;;;;;;;;5135754;27;20209;-77